createdAt,value
2018-01-15T00:01:26.628Z,17.66
2018-01-15T00:03:52.834Z,17.68
2018-01-15T00:06:19.046Z,17.63
2018-01-15T00:08:45.264Z,17.63
2018-01-15T00:11:11.440Z,17.64
2018-01-15T00:13:37.652Z,17.61
2018-01-15T00:16:04.247Z,17.61
2018-01-15T00:18:30.436Z,17.64
2018-01-15T00:20:56.616Z,17.64
2018-01-15T00:23:22.865Z,17.63
2018-01-15T00:25:49.361Z,17.60
2018-01-15T00:28:15.573Z,17.59
2018-01-15T00:30:41.784Z,17.57
2018-01-15T00:33:07.993Z,17.57
2018-01-15T00:35:34.886Z,17.56
2018-01-15T00:38:06.936Z,17.55
2018-01-15T00:40:33.140Z,17.57
2018-01-15T00:42:59.718Z,17.54
2018-01-15T00:45:25.952Z,17.53
2018-01-15T00:47:52.162Z,17.49
2018-01-15T00:50:18.790Z,17.48
2018-01-15T00:52:45.022Z,17.52
2018-01-15T00:55:11.276Z,17.50
2018-01-15T00:57:37.581Z,17.51
2018-01-15T01:00:03.934Z,17.50
2018-01-15T01:02:30.118Z,17.52
2018-01-15T01:04:56.392Z,17.54
2018-01-15T01:07:22.588Z,17.47
2018-01-15T01:09:48.922Z,17.45
2018-01-15T01:12:15.481Z,17.49
2018-01-15T01:14:41.729Z,17.54
2018-01-15T01:17:07.994Z,17.53
2018-01-15T01:19:34.237Z,17.53
2018-01-15T01:22:00.513Z,17.51
2018-01-15T01:24:26.754Z,17.50
2018-01-15T01:26:52.991Z,17.53
2018-01-15T01:29:19.177Z,17.54
2018-01-15T01:31:45.404Z,17.52
2018-01-15T01:34:11.622Z,17.51
2018-01-15T01:36:37.829Z,17.50
2018-01-15T01:39:04.214Z,17.47
2018-01-15T01:41:30.468Z,17.47
2018-01-15T01:43:56.711Z,17.49
2018-01-15T01:46:22.939Z,17.51
2018-01-15T01:48:58.377Z,17.53
2018-01-15T01:51:24.590Z,17.50
2018-01-15T01:53:50.901Z,17.49
2018-01-15T01:56:17.189Z,17.49
2018-01-15T01:58:43.398Z,17.51
2018-01-15T02:01:09.636Z,17.48
2018-01-15T02:03:36.286Z,17.47
2018-01-15T02:06:02.496Z,17.50
2018-01-15T02:08:28.967Z,17.47
2018-01-15T02:10:55.618Z,17.46
2018-01-15T02:13:21.853Z,17.48
2018-01-15T02:15:48.097Z,17.47
2018-01-15T02:18:14.318Z,17.45
2018-01-15T02:20:40.505Z,17.44
2018-01-15T02:23:06.716Z,17.46
2018-01-15T02:25:32.977Z,17.46
2018-01-15T02:27:59.202Z,17.44
2018-01-15T02:30:25.426Z,17.46
2018-01-15T02:32:52.010Z,17.47
2018-01-15T02:35:18.210Z,17.43
2018-01-15T02:37:44.461Z,17.45
2018-01-15T02:40:10.703Z,17.46
2018-01-15T02:42:36.943Z,17.42
2018-01-15T02:45:03.829Z,17.45
2018-01-15T02:47:30.025Z,17.43
2018-01-15T02:49:56.217Z,17.43
2018-01-15T02:52:22.498Z,17.42
2018-01-15T02:54:48.716Z,17.45
2018-01-15T02:57:15.044Z,17.42
2018-01-15T02:59:41.383Z,17.41
2018-01-15T03:02:07.627Z,17.38
2018-01-15T03:04:33.884Z,17.39
2018-01-15T03:07:00.141Z,17.42
2018-01-15T03:09:26.378Z,17.46
2018-01-15T03:11:52.610Z,17.46
2018-01-15T03:14:18.842Z,17.45
2018-01-15T03:16:45.070Z,17.42
2018-01-15T03:19:11.701Z,17.43
2018-01-15T03:21:37.906Z,17.48
2018-01-15T03:24:04.126Z,17.49
2018-01-15T03:26:30.341Z,17.46
2018-01-15T03:28:56.549Z,17.43
2018-01-15T03:31:22.782Z,17.43
2018-01-15T03:33:48.968Z,17.44
2018-01-15T03:36:15.179Z,17.43
2018-01-15T03:38:41.805Z,17.44
2018-01-15T03:41:08.022Z,17.44
2018-01-15T03:43:34.529Z,17.43
2018-01-15T03:46:01.116Z,17.45
2018-01-15T03:48:27.355Z,17.46
2018-01-15T03:50:53.583Z,17.43
2018-01-15T03:53:19.814Z,17.43
2018-01-15T03:55:45.998Z,17.44
2018-01-15T03:58:12.588Z,17.42
2018-01-15T04:00:38.826Z,17.43
2018-01-15T04:03:05.046Z,17.44
2018-01-15T04:05:31.339Z,17.42
2018-01-15T04:07:57.946Z,17.42
2018-01-15T04:10:24.138Z,17.44
2018-01-15T04:12:50.934Z,17.41
2018-01-15T04:15:18.058Z,17.41
2018-01-15T04:17:44.327Z,17.42
2018-01-15T04:20:10.592Z,17.41
2018-01-15T04:22:36.813Z,17.38
2018-01-15T04:25:03.004Z,17.37
2018-01-15T04:27:29.239Z,17.38
2018-01-15T04:29:55.408Z,17.38
2018-01-15T04:32:21.610Z,17.38
2018-01-15T04:34:48.267Z,17.37
2018-01-15T04:37:14.565Z,17.35
2018-01-15T04:39:40.750Z,17.38
2018-01-15T04:42:07.034Z,17.39
2018-01-15T04:44:33.283Z,17.38
2018-01-15T04:46:59.539Z,17.38
2018-01-15T04:49:25.807Z,17.37
2018-01-15T04:51:51.964Z,17.38
2018-01-15T04:54:18.178Z,17.37
2018-01-15T04:56:44.862Z,17.36
2018-01-15T04:59:11.055Z,17.32
2018-01-15T05:01:37.289Z,17.37
2018-01-15T05:04:03.546Z,17.41
2018-01-15T05:06:29.756Z,17.43
2018-01-15T05:08:55.949Z,17.42
2018-01-15T05:11:22.539Z,17.45
2018-01-15T05:13:48.763Z,17.44
2018-01-15T05:16:14.979Z,17.46
2018-01-15T05:18:41.543Z,17.45
2018-01-15T05:21:08.062Z,17.48
2018-01-15T05:23:34.249Z,17.52
2018-01-15T05:26:00.574Z,17.49
2018-01-15T05:28:26.786Z,17.48
2018-01-15T05:30:53.006Z,17.47
2018-01-15T05:33:19.614Z,17.46
2018-01-15T05:35:45.829Z,17.46
2018-01-15T05:38:12.265Z,17.47
2018-01-15T05:40:38.560Z,17.50
2018-01-15T05:43:04.785Z,17.50
2018-01-15T05:45:30.975Z,17.50
2018-01-15T05:47:57.464Z,17.51
2018-01-15T05:50:23.666Z,17.48
2018-01-15T05:52:49.857Z,17.46
2018-01-15T05:55:16.109Z,17.47
2018-01-15T05:57:42.379Z,17.49
2018-01-15T06:00:08.607Z,17.47
2018-01-15T06:02:34.927Z,17.47
2018-01-15T06:05:01.100Z,17.46
2018-01-15T06:07:27.625Z,17.48
2018-01-15T06:09:53.889Z,17.44
2018-01-15T06:12:20.113Z,17.45
2018-01-15T06:14:46.624Z,17.46
2018-01-15T06:17:12.873Z,17.46
2018-01-15T06:19:39.083Z,17.44
2018-01-15T06:22:05.343Z,17.45
2018-01-15T06:24:31.622Z,17.42
2018-01-15T06:26:57.844Z,17.44
2018-01-15T06:29:24.058Z,17.44
2018-01-15T06:31:50.633Z,17.45
2018-01-15T06:34:16.854Z,17.47
2018-01-15T06:36:43.093Z,17.48
2018-01-15T06:39:09.450Z,17.49
2018-01-15T06:41:35.695Z,17.48
2018-01-15T06:44:01.979Z,17.46
2018-01-15T06:46:28.232Z,17.45
2018-01-15T06:48:54.419Z,17.45
2018-01-15T06:51:20.676Z,17.46
2018-01-15T06:53:46.864Z,17.48
2018-01-15T06:56:13.092Z,17.45
2018-01-15T06:58:39.946Z,17.44
2018-01-15T07:01:06.140Z,17.44
2018-01-15T07:03:32.316Z,17.44
2018-01-15T07:05:58.587Z,17.45
2018-01-15T07:08:24.894Z,17.46
2018-01-15T07:10:51.074Z,17.49
2018-01-15T07:13:17.298Z,17.49
2018-01-15T07:15:43.506Z,17.49
2018-01-15T07:18:09.701Z,17.48
2018-01-15T07:20:35.927Z,17.45
2018-01-15T07:23:02.479Z,17.45
2018-01-15T07:25:28.718Z,17.28
2018-01-15T07:27:54.984Z,17.42
2018-01-15T07:30:21.280Z,17.42
2018-01-15T07:32:47.480Z,17.39
2018-01-15T07:35:13.789Z,17.38
2018-01-15T07:37:40.322Z,17.40
2018-01-15T07:40:06.571Z,17.43
2018-01-15T07:42:32.837Z,17.40
2018-01-15T07:44:59.054Z,17.42
2018-01-15T07:47:25.323Z,17.43
2018-01-15T07:49:51.554Z,17.44
2018-01-15T07:54:50.876Z,17.45
2018-01-15T07:57:17.120Z,17.48
2018-01-15T07:59:43.391Z,17.48
2018-01-15T08:02:16.503Z,17.50
2018-01-15T08:04:42.793Z,17.51
2018-01-15T08:07:09.044Z,17.51
2018-01-15T08:09:35.278Z,17.53
2018-01-15T08:12:01.516Z,17.53
2018-01-15T08:14:27.773Z,17.52
2018-01-15T08:16:54.382Z,17.49
2018-01-15T08:19:20.586Z,17.50
2018-01-15T08:21:46.839Z,17.52
2018-01-15T08:24:13.104Z,17.51
2018-01-15T08:26:39.359Z,17.52
2018-01-15T08:29:05.606Z,17.51
2018-01-15T08:31:31.901Z,17.53
2018-01-15T08:33:58.069Z,17.54
2018-01-15T08:36:24.231Z,17.57
2018-01-15T08:38:50.439Z,17.58
2018-01-15T08:41:16.650Z,17.53
2018-01-15T08:43:43.161Z,17.54
2018-01-15T08:46:09.387Z,17.53
2018-01-15T08:48:35.605Z,17.53
2018-01-15T08:51:01.924Z,17.54
2018-01-15T08:53:28.178Z,17.58
2018-01-15T08:55:54.427Z,17.59
2018-01-15T08:58:20.720Z,17.59
2018-01-15T09:00:46.920Z,17.59
2018-01-15T09:03:13.136Z,17.59
2018-01-15T09:05:39.724Z,17.57
2018-01-15T09:08:05.920Z,17.61
2018-01-15T09:10:32.188Z,17.62
2018-01-15T09:12:58.484Z,17.62
2018-01-15T09:15:24.705Z,17.65
2018-01-15T09:17:51.003Z,17.62
2018-01-15T09:20:17.227Z,17.59
2018-01-15T09:22:43.428Z,17.62
2018-01-15T09:25:10.033Z,17.63
2018-01-15T09:27:36.253Z,17.62
2018-01-15T09:30:02.520Z,17.63
2018-01-15T09:32:29.195Z,17.64
2018-01-15T09:34:55.387Z,17.61
2018-01-15T09:37:21.711Z,17.58
2018-01-15T09:39:47.986Z,17.58
2018-01-15T09:42:14.546Z,17.62
2018-01-15T09:44:40.776Z,17.63
2018-01-15T09:47:07.057Z,17.62
2018-01-15T09:49:33.295Z,17.64
2018-01-15T09:51:59.570Z,17.67
2018-01-15T09:54:25.813Z,17.66
2018-01-15T09:56:52.318Z,17.66
2018-01-15T09:59:18.969Z,17.63
2018-01-15T10:01:45.149Z,17.62
2018-01-15T10:04:11.411Z,17.63
2018-01-15T10:06:37.654Z,17.66
2018-01-15T10:09:04.036Z,17.68
2018-01-15T10:11:30.266Z,17.71
2018-01-15T10:13:56.548Z,17.74
2018-01-15T10:16:22.802Z,17.75
2018-01-15T10:18:49.053Z,17.76
2018-01-15T10:21:15.697Z,17.77
2018-01-15T10:23:41.965Z,17.78
2018-01-15T10:26:08.288Z,17.80
2018-01-15T10:28:34.533Z,17.85
2018-01-15T10:31:00.798Z,17.85
2018-01-15T10:33:27.230Z,17.88
2018-01-15T10:35:53.816Z,17.92
2018-01-15T10:38:20.351Z,17.97
2018-01-15T10:40:46.731Z,18.03
2018-01-15T10:43:13.307Z,18.01
2018-01-15T10:45:39.556Z,17.96
2018-01-15T10:48:05.770Z,17.94
2018-01-15T10:50:32.060Z,17.93
2018-01-15T10:52:58.264Z,17.93
2018-01-15T10:55:24.501Z,17.90
2018-01-15T10:57:50.688Z,17.92
2018-01-15T11:00:16.952Z,17.94
2018-01-15T11:02:43.211Z,17.95
2018-01-15T11:05:09.532Z,17.97
2018-01-15T11:07:35.735Z,17.95
2018-01-15T11:10:02.019Z,17.93
2018-01-15T11:12:28.245Z,17.93
2018-01-15T11:14:54.491Z,17.91
2018-01-15T11:17:20.771Z,17.91
2018-01-15T11:19:46.990Z,17.89
2018-01-15T11:22:13.214Z,17.91
2018-01-15T11:24:39.782Z,17.90
2018-01-15T11:27:06.027Z,17.90
2018-01-15T11:29:32.234Z,17.91
2018-01-15T11:31:58.798Z,17.92
2018-01-15T11:34:24.997Z,17.97
2018-01-15T11:36:51.234Z,17.99
2018-01-15T11:39:17.993Z,17.99
2018-01-15T11:41:44.545Z,17.99
2018-01-15T11:44:10.771Z,17.99
2018-01-15T11:46:37.289Z,17.99
2018-01-15T11:49:03.489Z,17.95
2018-01-15T11:51:29.702Z,17.94
2018-01-15T11:53:55.986Z,17.94
2018-01-15T11:56:22.174Z,17.95
2018-01-15T11:58:48.388Z,17.93
2018-01-15T12:01:14.918Z,17.94
2018-01-15T12:03:41.093Z,17.92
2018-01-15T12:06:07.627Z,17.93
2018-01-15T12:08:33.873Z,17.98
2018-01-15T12:11:00.301Z,17.99
2018-01-15T12:13:26.486Z,17.98
2018-01-15T12:15:53.061Z,17.95
2018-01-15T12:18:19.290Z,17.94
2018-01-15T12:20:45.490Z,17.94
2018-01-15T12:23:12.158Z,17.94
2018-01-15T12:25:38.359Z,17.91
2018-01-15T12:28:04.578Z,17.91
2018-01-15T12:30:30.806Z,17.91
2018-01-15T12:32:56.981Z,17.91
2018-01-15T12:35:23.196Z,17.90
2018-01-15T12:37:49.834Z,17.91
2018-01-15T12:40:16.025Z,17.91
2018-01-15T12:42:42.266Z,17.92
2018-01-15T12:45:08.550Z,17.94
2018-01-15T12:47:34.770Z,17.95
2018-01-15T12:50:00.993Z,17.93
2018-01-15T12:52:27.237Z,17.92
2018-01-15T12:54:54.047Z,17.93
2018-01-15T12:57:20.261Z,17.94
2018-01-15T12:59:47.014Z,17.96
2018-01-15T13:02:13.265Z,17.96
2018-01-15T13:04:39.490Z,17.95
2018-01-15T13:07:18.081Z,17.94
2018-01-15T13:09:44.332Z,17.94
2018-01-15T13:12:10.546Z,17.93
2018-01-15T13:14:37.096Z,17.92
2018-01-15T13:17:03.613Z,17.90
2018-01-15T13:19:29.825Z,17.90
2018-01-15T13:21:56.122Z,17.92
2018-01-15T13:24:22.359Z,17.92
2018-01-15T13:26:48.537Z,17.91
2018-01-15T13:29:14.831Z,17.92
2018-01-15T13:31:41.053Z,17.94
2018-01-15T13:34:07.225Z,17.97
2018-01-15T13:36:33.863Z,17.99
2018-01-15T13:39:00.106Z,17.98
2018-01-15T13:41:26.366Z,18.00
2018-01-15T13:43:52.938Z,17.99
2018-01-15T13:46:19.281Z,17.95
2018-01-15T13:48:45.474Z,17.93
2018-01-15T13:51:11.650Z,17.91
2018-01-15T13:53:37.956Z,17.90
2018-01-15T13:56:04.180Z,17.90
2018-01-15T13:58:30.430Z,17.88
2018-01-15T14:00:56.721Z,17.91
2018-01-15T14:03:23.280Z,17.89
2018-01-15T14:05:49.498Z,17.89
2018-01-15T14:08:16.091Z,17.90
2018-01-15T14:10:42.346Z,17.88
2018-01-15T14:13:08.537Z,17.88
2018-01-15T14:15:35.110Z,17.88
2018-01-15T14:18:01.373Z,17.86
2018-01-15T14:20:27.597Z,17.87
2018-01-15T14:22:54.130Z,17.85
2018-01-15T14:25:20.339Z,17.85
2018-01-15T14:27:46.643Z,17.86
2018-01-15T14:30:13.186Z,17.84
2018-01-15T14:32:39.432Z,17.81
2018-01-15T14:35:05.635Z,17.79
2018-01-15T14:37:31.886Z,17.81
2018-01-15T14:39:58.283Z,17.81
2018-01-15T14:42:24.428Z,17.80
2018-01-15T14:44:50.730Z,17.82
2018-01-15T14:47:17.231Z,17.83
2018-01-15T14:49:43.767Z,17.82
2018-01-15T14:52:10.040Z,17.83
2018-01-15T14:54:36.221Z,17.84
2018-01-15T14:57:02.418Z,17.83
2018-01-15T14:59:28.738Z,17.84
2018-01-15T15:01:55.111Z,17.86
2018-01-15T15:04:21.330Z,17.87
2018-01-15T15:06:47.879Z,17.85
2018-01-15T15:09:14.157Z,17.84
2018-01-15T15:11:40.390Z,17.85
2018-01-15T15:14:06.655Z,17.85
2018-01-15T15:16:33.258Z,17.84
2018-01-15T15:18:59.724Z,17.84
2018-01-15T15:21:26.574Z,17.82
2018-01-15T15:23:52.757Z,17.80
2018-01-15T15:26:19.236Z,17.79
2018-01-15T15:28:45.765Z,17.80
2018-01-15T15:31:12.065Z,17.81
2018-01-15T15:33:38.528Z,17.80
2018-01-15T15:36:04.779Z,17.81
2018-01-15T15:38:31.080Z,17.81
2018-01-15T15:40:57.322Z,17.82
2018-01-15T15:43:23.861Z,17.80
2018-01-15T15:45:50.389Z,17.77
2018-01-15T15:48:16.565Z,17.77
2018-01-15T15:50:42.787Z,17.76
2018-01-15T15:53:09.077Z,17.76
2018-01-15T15:55:35.284Z,17.77
2018-01-15T15:58:01.492Z,17.77
2018-01-15T16:00:28.038Z,17.76
2018-01-15T16:02:54.249Z,17.76
2018-01-15T16:05:20.473Z,17.77
2018-01-15T16:07:46.817Z,17.75
2018-01-15T16:10:13.091Z,17.76
2018-01-15T16:12:39.292Z,17.76
2018-01-15T16:15:05.580Z,17.77
2018-01-15T16:17:31.794Z,17.75
2018-01-15T16:19:58.039Z,17.77
2018-01-15T16:22:31.805Z,17.78
2018-01-15T16:24:58.050Z,17.77
2018-01-15T16:27:24.265Z,17.78
2018-01-15T16:29:50.550Z,17.77
2018-01-15T16:32:16.782Z,17.76
2018-01-15T16:34:42.990Z,17.77
2018-01-15T16:37:09.280Z,17.77
2018-01-15T16:39:35.500Z,17.76
2018-01-15T16:42:01.707Z,17.77
2018-01-15T16:44:28.505Z,17.76
2018-01-15T16:46:54.725Z,17.77
2018-01-15T16:49:20.951Z,17.77
2018-01-15T16:51:47.216Z,17.76
2018-01-15T16:54:13.482Z,17.75
2018-01-15T16:56:40.025Z,17.76
2018-01-15T16:59:06.296Z,17.76
2018-01-15T17:01:32.526Z,17.76
2018-01-15T17:03:58.729Z,17.74
2018-01-15T17:06:25.006Z,17.73
2018-01-15T17:08:51.207Z,17.74
2018-01-15T17:11:17.490Z,17.75
2018-01-15T17:13:44.016Z,17.75
2018-01-15T17:16:10.547Z,17.76
2018-01-15T17:18:36.811Z,17.75
2018-01-15T17:21:03.151Z,17.76
2018-01-15T17:23:29.383Z,17.76
2018-01-15T17:25:55.611Z,17.78
2018-01-15T17:28:21.885Z,17.78
2018-01-15T17:30:48.095Z,17.77
2018-01-15T17:33:14.634Z,17.77
2018-01-15T17:35:40.884Z,17.77
2018-01-15T17:38:07.077Z,17.74
2018-01-15T17:40:33.600Z,17.72
2018-01-15T17:42:59.823Z,17.73
2018-01-15T17:45:26.008Z,17.72
2018-01-15T17:47:52.245Z,17.71
2018-01-15T17:50:18.478Z,17.69
2018-01-15T17:52:44.666Z,17.70
2018-01-15T17:55:10.972Z,17.70
2018-01-15T17:57:37.211Z,17.71
2018-01-15T18:00:03.571Z,17.69
2018-01-15T18:02:29.935Z,17.68
2018-01-15T18:04:56.149Z,17.68
2018-01-15T18:07:22.351Z,17.67
2018-01-15T18:09:48.691Z,17.68
2018-01-15T18:12:14.950Z,17.70
2018-01-15T18:14:41.191Z,17.70
2018-01-15T18:17:07.437Z,17.72
2018-01-15T18:19:33.633Z,17.73
2018-01-15T18:22:00.161Z,17.72
2018-01-15T18:24:26.383Z,17.72
2018-01-15T18:26:52.710Z,17.72
2018-01-15T18:29:18.938Z,17.73
2018-01-15T18:31:45.170Z,17.73
2018-01-15T18:34:11.712Z,17.73
2018-01-15T18:36:38.241Z,17.71
2018-01-15T18:39:04.510Z,17.72
2018-01-15T18:41:30.800Z,17.71
2018-01-15T18:43:57.021Z,17.69
2018-01-15T18:46:23.218Z,17.69
2018-01-15T18:48:49.703Z,17.70
2018-01-15T18:51:15.891Z,17.69
2018-01-15T18:53:42.095Z,17.69
2018-01-15T18:56:08.688Z,17.69
2018-01-15T18:58:35.218Z,17.69
2018-01-15T19:01:01.551Z,17.68
2018-01-15T19:03:27.762Z,17.64
2018-01-15T19:05:54.311Z,17.64
2018-01-15T19:08:20.563Z,17.62
2018-01-15T19:10:46.835Z,17.62
2018-01-15T19:13:13.138Z,17.65
2018-01-15T19:15:39.370Z,17.66
2018-01-15T19:18:05.594Z,17.66
2018-01-15T19:20:31.902Z,17.67
2018-01-15T19:22:58.121Z,17.67
2018-01-15T19:25:24.343Z,17.66
2018-01-15T19:27:50.868Z,17.67
2018-01-15T19:30:17.168Z,17.67
2018-01-15T19:32:43.478Z,17.66
2018-01-15T19:38:21.623Z,17.71
2018-01-15T19:40:47.991Z,17.76
2018-01-15T19:43:17.182Z,17.77
2018-01-15T19:45:49.805Z,17.72
2018-01-15T19:48:22.016Z,17.68
2018-01-15T19:50:54.628Z,17.69
2018-01-15T19:53:27.065Z,17.70
2018-01-15T19:55:59.282Z,17.70
2018-01-15T19:58:31.398Z,17.71
2018-01-15T20:01:04.106Z,17.70
2018-01-15T20:03:36.487Z,17.71
2018-01-15T20:06:08.913Z,17.72
2018-01-15T20:08:41.427Z,17.75
2018-01-15T20:11:08.703Z,17.77
2018-01-15T20:13:35.330Z,17.76
2018-01-15T20:16:01.638Z,17.79
2018-01-15T20:18:27.914Z,17.89
2018-01-15T20:20:54.276Z,17.98
2018-01-15T20:23:20.603Z,17.98
2018-01-15T20:25:46.859Z,17.94
2018-01-15T20:28:13.431Z,17.90
2018-01-15T20:30:39.734Z,17.88
2018-01-15T20:33:06.015Z,17.86
2018-01-15T20:35:32.316Z,17.86
2018-01-15T20:37:58.671Z,17.86
2018-01-15T20:40:24.962Z,17.86
2018-01-15T20:42:52.869Z,17.91
2018-01-15T20:45:19.158Z,17.93
2018-01-15T20:47:45.439Z,17.94
2018-01-15T20:50:11.686Z,17.98
2018-01-15T20:52:38.231Z,18.00
2018-01-15T20:55:04.474Z,17.99
2018-01-15T20:57:30.700Z,18.00
2018-01-15T20:59:56.998Z,17.97
2018-01-15T21:02:23.292Z,17.93
2018-01-15T21:04:49.621Z,17.90
2018-01-15T21:07:15.921Z,17.89
2018-01-15T21:09:42.105Z,17.90
2018-01-15T21:12:08.495Z,17.89
2018-01-15T21:14:35.294Z,17.86
2018-01-15T21:17:01.513Z,17.85
2018-01-15T21:19:27.761Z,17.86
2018-01-15T21:21:54.275Z,17.84
2018-01-15T21:24:20.469Z,17.86
2018-01-15T21:26:46.912Z,17.87
2018-01-15T21:29:13.159Z,17.87
2018-01-15T21:31:39.399Z,17.87
2018-01-15T21:34:05.656Z,17.86
2018-01-15T21:36:31.922Z,17.88
2018-01-15T21:38:58.159Z,17.92
2018-01-15T21:41:24.753Z,17.91
2018-01-15T21:43:51.021Z,17.89
2018-01-15T21:46:17.265Z,17.85
2018-01-15T21:48:43.528Z,17.84
2018-01-15T21:51:09.795Z,17.88
2018-01-15T21:53:36.025Z,17.88
2018-01-15T21:56:02.242Z,17.88
2018-01-15T21:58:28.559Z,17.87
2018-01-15T22:00:55.012Z,17.92
2018-01-15T22:03:21.227Z,17.92
2018-01-15T22:05:47.725Z,18.00
2018-01-15T22:08:13.941Z,18.00
2018-01-15T22:10:40.211Z,18.04
2018-01-15T22:13:06.493Z,18.03
2018-01-15T22:15:32.721Z,18.04
2018-01-15T22:17:58.978Z,18.03
2018-01-15T22:20:25.237Z,18.03
2018-01-15T22:22:51.475Z,18.06
2018-01-15T22:25:17.739Z,18.06
2018-01-15T22:27:44.227Z,18.05
2018-01-15T22:30:10.512Z,18.03
2018-01-15T22:32:36.745Z,18.00
2018-01-15T22:35:03.188Z,18.01
2018-01-15T22:37:29.474Z,18.04
2018-01-15T22:39:55.734Z,18.00
2018-01-15T22:42:21.933Z,17.96
2018-01-15T22:44:48.252Z,17.93
2018-01-15T22:47:14.475Z,17.92
2018-01-15T22:49:40.694Z,17.93
2018-01-15T22:52:06.948Z,17.96
2018-01-15T22:54:33.279Z,18.00
2018-01-15T22:56:59.622Z,18.03
2018-01-15T22:59:25.944Z,18.03
2018-01-15T23:01:52.383Z,18.05
2018-01-15T23:04:18.901Z,18.03
2018-01-15T23:06:45.343Z,18.02
2018-01-15T23:09:12.032Z,18.01
2018-01-15T23:11:38.577Z,17.99
2018-01-15T23:14:04.993Z,18.03
2018-01-15T23:16:31.306Z,18.04
2018-01-15T23:18:58.425Z,18.04
2018-01-15T23:21:24.661Z,18.05
2018-01-15T23:23:51.122Z,18.05
2018-01-15T23:26:17.418Z,18.06
2018-01-15T23:28:43.768Z,18.07
2018-01-15T23:31:11.535Z,18.11
2018-01-15T23:33:37.902Z,18.13
2018-01-15T23:36:04.296Z,18.14
2018-01-15T23:38:30.679Z,18.14
2018-01-15T23:40:57.027Z,18.18
2018-01-15T23:43:23.304Z,18.20
2018-01-15T23:45:49.566Z,18.18
2018-01-15T23:48:15.772Z,18.16
2018-01-15T23:50:42.043Z,18.17
2018-01-15T23:53:08.541Z,18.13
2018-01-15T23:55:34.738Z,18.12
2018-01-15T23:58:00.986Z,18.11
